»·PEaware :: N17SJ KBFL-KMHV

N17SJ :: KBFL-KMHV

FLIGHT INFORMATION

Flight Status: Arrived
Operator: Privately registered:
United States
More flights under this callsign
Pilot: Daniel R. (33260)
Aircraft: CESSNA 172 SKYHAWK
(C172)
More flights by this aircraft type
Origin: KBFL Meadows
United States
Destination: KMHV Mojave
United States
More flights between these airports :: More routes between these airports
Route: VFR
File this flight plan on PilotEdge
Remarks:
Altitude:
(Current/Filed)
7,500ft
Speed:
(Current/Filed)
110kts
Departed: 27-Jan-21 01:51 PM
Arrived: 27-Jan-21 02:24 PM
Distance/Time
Traveled:
120nm/0:32
Distance/Time
To Go:
Arrived

Flight Plot

Page will automatically refresh every two minutes.

Flight plan parsing failed; only flown route is shown


Map Options




Map Legend


Flown Route
Filed Route
Departure Airport
Arrival Airport
Navaid (VOR, NDB)
Fix

Horizontal Profiles

Position Reports

Time Latitude Longitude Heading Altitude Ground
Speed
27-Jan-21 13:33 35.431842 -119.049947 227 485ft 0kts
27-Jan-21 13:34 35.431842 -119.049947 227 485ft 0kts
27-Jan-21 13:35 35.431842 -119.049947 227 485ft 0kts
27-Jan-21 13:36 35.431842 -119.049947 227 485ft 0kts
27-Jan-21 13:37 35.431842 -119.049947 227 485ft 0kts
27-Jan-21 13:38 35.431842 -119.049947 227 485ft 0kts
27-Jan-21 13:39 35.431842 -119.049947 227 485ft 0kts
27-Jan-21 13:39 35.431550 -119.050025 207 485ft 4kts
27-Jan-21 13:41 35.433617 -119.053645 315 486ft 15kts
27-Jan-21 13:41 35.436559 -119.057217 314 494ft 27kts
27-Jan-21 13:43 35.440332 -119.061763 311 496ft 0kts
27-Jan-21 13:43 35.440409 -119.062430 241 496ft 0kts
27-Jan-21 13:45 35.440344 -119.062507 208 496ft 0kts
27-Jan-21 13:45 35.440344 -119.062507 208 496ft 0kts
27-Jan-21 13:46 35.441688 -119.063421 315 501ft 14kts
27-Jan-21 13:47 35.445711 -119.068329 312 509ft 22kts
27-Jan-21 13:48 35.446850 -119.070445 223 509ft 0kts
27-Jan-21 13:49 35.446209 -119.070919 175 510ft 11kts
27-Jan-21 13:50 35.434187 -119.056644 139 978ft 76kts
27-Jan-21 13:51 35.418285 -119.040619 87 1785ft 77kts
27-Jan-21 13:52 35.435074 -119.024383 21 2517ft 83kts
27-Jan-21 13:53 35.448545 -119.010562 137 3265ft 85kts
27-Jan-21 13:54 35.429195 -118.989751 138 3944ft 91kts
27-Jan-21 13:55 35.410814 -118.967521 136 4618ft 95kts
27-Jan-21 13:56 35.391183 -118.946073 139 5298ft 94kts
27-Jan-21 13:57 35.375710 -118.919992 116 5921ft 96kts
27-Jan-21 13:58 35.368594 -118.888085 99 6512ft 97kts
27-Jan-21 13:59 35.364386 -118.855078 106 7079ft 99kts
27-Jan-21 14:00 35.355331 -118.823182 113 7624ft 99kts
27-Jan-21 14:01 35.344551 -118.791712 112 8146ft 100kts
27-Jan-21 14:02 35.332810 -118.760929 116 8346ft 104kts
27-Jan-21 14:03 35.322683 -118.727595 115 8319ft 104kts
27-Jan-21 14:04 35.308368 -118.696278 121 8252ft 105kts
27-Jan-21 14:05 35.293807 -118.665098 124 8145ft 105kts
27-Jan-21 14:06 35.277478 -118.635420 124 8070ft 105kts
27-Jan-21 14:07 35.261016 -118.605846 126 8012ft 105kts
27-Jan-21 14:08 35.242926 -118.577930 134 7922ft 105kts
27-Jan-21 14:09 35.223066 -118.551841 133 7873ft 104kts
27-Jan-21 14:10 35.204103 -118.524902 128 7824ft 104kts
27-Jan-21 14:11 35.186988 -118.496091 124 7659ft 104kts
27-Jan-21 14:12 35.169795 -118.467407 132 7513ft 104kts
27-Jan-21 14:13 35.146062 -118.447534 143 7338ft 104kts
27-Jan-21 14:14 35.129439 -118.418604 126 7074ft 104kts
27-Jan-21 14:15 35.113282 -118.389453 122 6784ft 103kts
27-Jan-21 14:16 35.100177 -118.358155 114 6506ft 103kts
27-Jan-21 14:17 35.089098 -118.325718 110 6234ft 102kts
27-Jan-21 14:18 35.077099 -118.294273 121 5766ft 103kts
27-Jan-21 14:19 35.066185 -118.262165 105 5124ft 103kts
27-Jan-21 14:20 35.060957 -118.229213 97 4316ft 98kts
27-Jan-21 14:21 35.059516 -118.196001 88 3608ft 93kts
27-Jan-21 14:22 35.059257 -118.167074 90 2853ft 72kts
27-Jan-21 14:23 35.058663 -118.157760 174 2764ft 6kts
27-Jan-21 14:24 35.058477 -118.157741 176 2764ft 2kts
27-Jan-21 14:25 35.057038 -118.157624 273 2766ft 0kts
27-Jan-21 14:26 0.000408 0.013975 0 3ft 0kts
27-Jan-21 14:27 0.000408 0.013975 0 3ft 0kts
27-Jan-21 14:28 0.000408 0.013975 0 3ft 0kts
27-Jan-21 14:29 0.000408 0.013975 0 3ft 0kts
27-Jan-21 14:30 0.000408 0.013975 0 3ft 0kts
27-Jan-21 14:31 0.000408 0.013975 0 3ft 0kts
27-Jan-21 14:32 0.000408 0.013975 0 3ft 0kts
27-Jan-21 14:33 0.000408 0.013975 0 3ft 0kts
27-Jan-21 14:34 34.101697 -117.230006 16 1121ft 0kts
27-Jan-21 14:35 34.101697 -117.230006 16 1137ft 0kts
27-Jan-21 14:36 34.101697 -117.230006 16 1137ft 0kts
27-Jan-21 14:37 34.101697 -117.230006 16 1137ft 0kts

Navigation Log

Ident Type
Flight plan parsing failed, navigation log unavailable